createdAt,value
2019-05-13T00:00:39.191Z,91.07
2019-05-13T00:03:10.615Z,91.54
2019-05-13T00:05:44.247Z,91.49
2019-05-13T00:08:14.945Z,91.48
2019-05-13T00:10:46.797Z,91.58
2019-05-13T00:13:19.566Z,91.59
2019-05-13T00:15:50.809Z,91.53
2019-05-13T00:18:23.564Z,91.25
2019-05-13T00:20:55.037Z,91.08
2019-05-13T00:23:26.281Z,90.47
2019-05-13T00:25:57.530Z,89.46
2019-05-13T00:28:29.200Z,89.32
2019-05-13T00:31:03.281Z,89.39
2019-05-13T00:33:34.684Z,89.21
2019-05-13T00:36:06.183Z,89.49
2019-05-13T00:38:37.704Z,89.76
2019-05-13T00:41:09.425Z,89.77
2019-05-13T00:43:41.016Z,89.61
2019-05-13T00:46:14.177Z,89.72
2019-05-13T00:48:45.295Z,90.29
2019-05-13T00:51:16.539Z,90.21
2019-05-13T00:53:47.953Z,90.39
2019-05-13T00:56:19.320Z,89.58
2019-05-13T00:58:50.650Z,90.15
2019-05-13T01:01:24.310Z,90.33
2019-05-13T01:03:55.755Z,90.41
2019-05-13T01:06:27.688Z,90.92
2019-05-13T01:08:59.112Z,90.13
2019-05-13T01:11:30.643Z,88.90
2019-05-13T01:14:04.068Z,89.67
2019-05-13T01:16:34.838Z,90.01
2019-05-13T01:19:06.072Z,90.19
2019-05-13T01:21:37.535Z,89.86
2019-05-13T01:24:08.764Z,90.05
2019-05-13T01:26:40.241Z,90.51
2019-05-13T01:29:13.479Z,90.48
2019-05-13T01:31:44.418Z,90.49
2019-05-13T01:34:15.598Z,90.39
2019-05-13T01:36:47.231Z,90.48
2019-05-13T01:39:18.858Z,89.60
2019-05-13T01:41:50.118Z,89.81
2019-05-13T01:44:24.393Z,90.39
2019-05-13T01:46:56.212Z,90.86
2019-05-13T01:49:27.410Z,90.90
2019-05-13T01:52:03.480Z,91.53
2019-05-13T01:54:34.259Z,91.67
2019-05-13T01:57:05.531Z,91.59
2019-05-13T01:59:36.855Z,91.55
2019-05-13T02:02:10.770Z,92.43
2019-05-13T02:04:43.901Z,93.03
2019-05-13T02:07:15.419Z,92.32
2019-05-13T02:09:46.747Z,92.18
2019-05-13T02:12:18.492Z,91.80
2019-05-13T02:14:49.866Z,91.48
2019-05-13T02:17:23.283Z,91.43
2019-05-13T02:19:54.189Z,91.14
2019-05-13T02:22:25.335Z,90.43
2019-05-13T02:24:56.664Z,89.36
2019-05-13T02:27:28.042Z,89.91
2019-05-13T02:29:59.365Z,89.89
2019-05-13T02:32:32.933Z,90.32
2019-05-13T02:35:04.183Z,90.54
2019-05-13T02:37:35.607Z,90.57
2019-05-13T02:40:07.965Z,90.47
2019-05-13T02:42:39.200Z,90.50
2019-05-13T02:45:12.375Z,90.96
2019-05-13T02:47:45.129Z,91.25
2019-05-13T02:50:16.516Z,91.31
2019-05-13T02:52:47.749Z,91.58
2019-05-13T02:55:22.161Z,91.87
2019-05-13T02:57:52.851Z,91.82
2019-05-13T03:00:25.108Z,91.89
2019-05-13T03:02:56.588Z,91.09
2019-05-13T03:05:27.777Z,91.41
2019-05-13T03:07:58.994Z,91.46
2019-05-13T03:10:33.143Z,91.10
2019-05-13T03:13:04.187Z,91.43
2019-05-13T03:15:47.352Z,91.53
2019-05-13T03:18:22.284Z,92.16
2019-05-13T03:20:53.266Z,92.33
2019-05-13T03:23:24.891Z,92.28
2019-05-13T03:25:56.092Z,92.26
2019-05-13T03:28:27.690Z,92.13
2019-05-13T03:31:05.478Z,91.95
2019-05-13T03:33:37.467Z,91.61
2019-05-13T03:36:14.045Z,91.60
2019-05-13T03:38:59.660Z,91.80
2019-05-13T03:41:15.739Z,92.08
2019-05-13T03:43:49.014Z,91.81
2019-05-13T03:46:22.690Z,91.42
2019-05-13T03:48:55.343Z,92.00
2019-05-13T03:51:26.970Z,92.35
2019-05-13T03:53:58.353Z,90.74
2019-05-13T03:56:32.789Z,91.58
2019-05-13T03:59:03.732Z,91.51
2019-05-13T04:01:36.242Z,92.17
2019-05-13T04:04:12.373Z,92.23
2019-05-13T04:06:42.942Z,92.51
2019-05-13T04:09:26.201Z,92.34
2019-05-13T04:11:47.906Z,92.45
2019-05-13T04:14:22.598Z,92.48
2019-05-13T04:16:53.436Z,91.34
2019-05-13T04:19:24.946Z,91.35
2019-05-13T04:21:56.467Z,91.04
2019-05-13T04:24:27.734Z,90.05
2019-05-13T04:27:02.626Z,90.19
2019-05-13T04:29:33.233Z,89.98
2019-05-13T04:32:05.022Z,89.37
2019-05-13T04:34:36.247Z,89.74
2019-05-13T04:37:07.496Z,89.91
2019-05-13T04:39:47.639Z,90.07
2019-05-13T04:42:12.442Z,89.98
2019-05-13T04:44:44.228Z,90.27
2019-05-13T04:47:15.515Z,89.83
2019-05-13T04:49:46.753Z,90.56
2019-05-13T04:52:18.290Z,89.44
2019-05-13T04:54:52.714Z,89.75
2019-05-13T04:57:23.018Z,89.05
2019-05-13T04:59:55.221Z,88.62
2019-05-13T05:03:08.963Z,89.39
2019-05-13T05:06:12.031Z,89.38
2019-05-13T05:09:08.217Z,88.48
2019-05-13T05:12:33.360Z,87.99
2019-05-13T05:15:55.115Z,87.59
2019-05-13T05:18:53.340Z,86.78
2019-05-13T05:21:29.324Z,87.08
2019-05-13T05:24:35.393Z,86.24
2019-05-13T05:27:42.698Z,86.34
2019-05-13T05:30:42.776Z,86.51
2019-05-13T05:33:56.895Z,86.19
2019-05-13T05:37:03.828Z,84.66
2019-05-13T05:39:34.996Z,84.96
2019-05-13T05:42:07.331Z,84.46
2019-05-13T05:44:39.020Z,84.07
2019-05-13T05:47:11.364Z,83.29
2019-05-13T05:49:43.421Z,84.11
2019-05-13T05:52:17.717Z,84.69
2019-05-13T05:54:51.728Z,85.26
2019-05-13T05:57:24.752Z,84.06
2019-05-13T05:59:56.949Z,84.61
2019-05-13T06:02:28.767Z,82.78
2019-05-13T06:05:02.651Z,83.03
2019-05-13T06:07:36.338Z,81.30
2019-05-13T06:10:07.552Z,82.86
2019-05-13T06:12:42.153Z,81.88
2019-05-13T06:15:16.767Z,80.69
2019-05-13T06:17:48.821Z,82.50
2019-05-13T06:20:21.087Z,82.21
2019-05-13T06:22:52.646Z,82.05
2019-05-13T06:25:24.067Z,81.84
2019-05-13T06:27:55.266Z,82.23
2019-05-13T06:30:26.462Z,81.25
2019-05-13T06:32:58.812Z,81.22
2019-05-13T06:35:32.159Z,76.93
2019-05-13T06:38:03.082Z,78.61
2019-05-13T06:40:34.541Z,79.27
2019-05-13T06:43:05.769Z,79.68
2019-05-13T06:45:37.028Z,78.93
2019-05-13T06:48:08.364Z,79.42
2019-05-13T06:50:41.566Z,78.35
2019-05-13T06:53:12.876Z,78.41
2019-05-13T06:55:46.313Z,76.97
2019-05-13T06:58:17.794Z,77.03
2019-05-13T07:00:51.618Z,77.23
2019-05-13T07:03:22.240Z,77.79
2019-05-13T07:05:53.410Z,77.95
2019-05-13T07:08:24.842Z,78.81
2019-05-13T07:10:56.129Z,77.60
2019-05-13T07:13:27.567Z,76.03
2019-05-13T07:16:01.404Z,76.03
2019-05-13T07:18:33.982Z,76.53
2019-05-13T07:21:05.327Z,76.56
2019-05-13T07:23:36.629Z,75.51
2019-05-13T07:26:08.105Z,76.47
2019-05-13T07:28:42.664Z,75.85
2019-05-13T07:31:12.656Z,74.91
2019-05-13T07:33:58.973Z,76.14
2019-05-13T07:36:31.660Z,74.57
2019-05-13T07:39:06.105Z,75.61
2019-05-13T07:41:39.591Z,75.57
2019-05-13T07:44:11.824Z,75.91
2019-05-13T07:46:43.578Z,75.85
2019-05-13T07:49:15.211Z,75.18
2019-05-13T07:51:46.530Z,75.70
2019-05-13T07:54:18.070Z,75.60
2019-05-13T07:56:52.306Z,73.60
2019-05-13T07:59:22.923Z,74.61
2019-05-13T08:01:54.988Z,74.43
2019-05-13T08:04:26.939Z,74.29
2019-05-13T08:06:58.286Z,73.85
2019-05-13T08:09:31.880Z,74.29
2019-05-13T08:12:09.843Z,73.76
2019-05-13T08:14:36.198Z,73.43
2019-05-13T08:17:07.715Z,73.26
2019-05-13T08:23:03.758Z,72.54
2019-05-13T08:25:35.569Z,72.04
2019-05-13T08:28:07.510Z,72.18
2019-05-13T08:30:42.579Z,71.49
2019-05-13T08:33:13.520Z,72.73
2019-05-13T08:35:47.221Z,73.39
2019-05-13T08:38:22.982Z,71.74
2019-05-13T08:40:55.700Z,71.49
2019-05-13T08:43:31.656Z,71.60
2019-05-13T08:46:02.705Z,71.72
2019-05-13T08:48:35.096Z,71.07
2019-05-13T08:51:06.362Z,69.56
2019-05-13T08:53:38.239Z,70.43
2019-05-13T08:56:09.428Z,71.00
2019-05-13T08:58:41.272Z,69.52
2019-05-13T09:01:12.913Z,68.84
2019-05-13T09:03:44.647Z,67.93
2019-05-13T09:06:17.448Z,68.57
2019-05-13T09:08:53.295Z,68.99
2019-05-13T09:11:22.258Z,69.25
2019-05-13T09:13:53.934Z,68.81
2019-05-13T09:16:25.228Z,69.83
2019-05-13T09:18:56.415Z,69.26
2019-05-13T09:21:28.013Z,67.68
2019-05-13T09:23:59.213Z,66.84
2019-05-13T09:26:31.553Z,68.47
2019-05-13T09:29:03.202Z,68.69
2019-05-13T09:31:34.727Z,67.21
2019-05-13T09:34:05.940Z,67.69
2019-05-13T09:36:37.267Z,68.15
2019-05-13T09:39:09.308Z,67.83
2019-05-13T09:41:44.178Z,68.10
2019-05-13T09:44:13.485Z,67.95
2019-05-13T09:46:44.829Z,67.94
2019-05-13T09:49:20.033Z,65.74
2019-05-13T09:51:49.007Z,65.00
2019-05-13T09:54:22.339Z,65.09
2019-05-13T09:56:53.592Z,65.63
2019-05-13T09:59:24.795Z,65.68
2019-05-13T10:01:58.634Z,64.81
2019-05-13T10:04:31.774Z,63.19
2019-05-13T10:07:03.119Z,64.50
2019-05-13T10:09:34.548Z,64.70
2019-05-13T10:12:06.211Z,65.99
2019-05-13T10:14:37.407Z,63.92
2019-05-13T10:17:08.650Z,62.52
2019-05-13T10:19:42.045Z,62.97
2019-05-13T10:22:12.869Z,63.33
2019-05-13T10:24:44.245Z,61.39
2019-05-13T10:27:18.844Z,62.34
2019-05-13T10:29:51.514Z,61.78
2019-05-13T10:32:22.377Z,61.33
2019-05-13T10:34:54.184Z,62.14
2019-05-13T10:37:25.387Z,61.58
2019-05-13T10:39:56.657Z,59.98
2019-05-13T10:42:27.952Z,59.68
2019-05-13T10:45:02.261Z,60.88
2019-05-13T10:47:32.861Z,60.27
2019-05-13T10:50:04.216Z,60.65
2019-05-13T10:52:35.800Z,58.88
2019-05-13T10:55:07.039Z,59.73
2019-05-13T10:57:38.763Z,59.88
2019-05-13T11:00:12.174Z,59.45
2019-05-13T11:02:43.702Z,58.25
2019-05-13T11:05:15.527Z,58.57
2019-05-13T11:07:46.837Z,59.26
2019-05-13T11:10:22.364Z,58.51
2019-05-13T11:12:54.216Z,58.34
2019-05-13T11:15:25.876Z,57.86
2019-05-13T11:17:57.924Z,58.53
2019-05-13T11:20:29.136Z,58.32
2019-05-13T11:23:02.371Z,56.62
2019-05-13T11:25:34.389Z,58.43
2019-05-13T11:28:05.606Z,57.67
2019-05-13T11:30:36.824Z,58.22
2019-05-13T11:33:10.155Z,58.87
2019-05-13T11:35:41.594Z,58.22
2019-05-13T11:38:13.126Z,57.97
2019-05-13T11:40:46.029Z,58.31
2019-05-13T11:43:17.231Z,57.16
2019-05-13T11:45:48.577Z,55.80
2019-05-13T11:48:23.564Z,56.60
2019-05-13T11:50:54.971Z,57.73
2019-05-13T11:53:33.279Z,58.09
2019-05-13T11:56:03.546Z,57.65
2019-05-13T11:58:34.993Z,58.70
2019-05-13T12:01:06.610Z,58.03
2019-05-13T12:03:42.875Z,57.85
2019-05-13T12:06:13.001Z,59.65
2019-05-13T12:08:51.082Z,59.85
2019-05-13T12:11:17.235Z,60.52
2019-05-13T12:13:52.508Z,61.45
2019-05-13T12:16:22.725Z,60.26
2019-05-13T12:18:54.451Z,58.62
2019-05-13T12:21:26.163Z,59.28
2019-05-13T12:24:10.530Z,59.02
2019-05-13T12:26:35.862Z,60.50
2019-05-13T12:29:14.599Z,59.39
2019-05-13T12:31:40.599Z,58.98
2019-05-13T12:34:13.244Z,58.49
2019-05-13T12:36:44.797Z,58.04
2019-05-13T12:39:15.982Z,58.66
2019-05-13T12:41:47.281Z,60.09
2019-05-13T12:44:22.283Z,60.53
2019-05-13T12:46:54.260Z,62.42
2019-05-13T12:49:32.060Z,62.96
2019-05-13T12:52:03.622Z,61.77
2019-05-13T12:54:32.631Z,61.30
2019-05-13T12:57:04.027Z,61.28
2019-05-13T12:59:37.026Z,60.63
2019-05-13T13:02:08.365Z,60.79
2019-05-13T13:05:07.271Z,59.08
2019-05-13T13:07:13.526Z,60.64
2019-05-13T13:09:45.443Z,60.50
2019-05-13T13:12:16.838Z,60.08
2019-05-13T13:14:48.036Z,60.49
2019-05-13T13:17:22.633Z,58.22
2019-05-13T13:19:54.795Z,60.64
2019-05-13T13:22:25.713Z,60.51
2019-05-13T13:24:57.918Z,61.49
2019-05-13T13:28:00.024Z,59.94
2019-05-13T13:30:07.838Z,61.00
2019-05-13T13:32:34.998Z,59.89
2019-05-13T13:35:06.261Z,60.06
2019-05-13T13:37:45.066Z,57.64
2019-05-13T13:40:24.504Z,59.17
2019-05-13T13:42:48.568Z,60.27
2019-05-13T13:45:22.196Z,59.16
2019-05-13T13:48:03.077Z,59.70
2019-05-13T13:50:26.792Z,60.29
2019-05-13T13:52:58.020Z,60.62
2019-05-13T13:55:32.143Z,60.33
2019-05-13T13:58:02.463Z,60.57
2019-05-13T14:00:47.285Z,57.66
2019-05-13T14:03:08.060Z,57.42
2019-05-13T14:05:42.559Z,57.98
2019-05-13T14:08:12.683Z,58.98
2019-05-13T14:10:44.137Z,57.69
2019-05-13T14:13:15.405Z,59.51
2019-05-13T14:15:47.265Z,58.05
2019-05-13T14:18:25.767Z,58.30
2019-05-13T14:20:53.170Z,58.04
2019-05-13T14:23:24.588Z,56.07
2019-05-13T14:25:56.182Z,58.24
2019-05-13T14:28:27.666Z,59.05
2019-05-13T14:31:01.972Z,58.61
2019-05-13T14:33:35.812Z,58.12
2019-05-13T14:36:07.133Z,57.51
2019-05-13T14:38:38.600Z,56.79
2019-05-13T14:41:12.369Z,57.17
2019-05-13T14:43:43.248Z,56.84
2019-05-13T14:46:14.429Z,56.07
2019-05-13T14:48:45.675Z,55.75
2019-05-13T14:51:17.123Z,55.47
2019-05-13T14:53:48.360Z,55.04
2019-05-13T14:56:22.075Z,56.06
2019-05-13T14:58:52.595Z,55.88
2019-05-13T15:01:23.840Z,56.14
2019-05-13T15:03:55.096Z,55.48
2019-05-13T15:06:26.261Z,56.07
2019-05-13T15:08:57.491Z,55.60
2019-05-13T15:11:28.715Z,56.41
2019-05-13T15:14:02.236Z,56.73
2019-05-13T15:16:32.883Z,56.27
2019-05-13T15:19:04.790Z,56.41
2019-05-13T15:21:36.009Z,54.68
2019-05-13T15:24:13.866Z,55.23
2019-05-13T15:26:45.655Z,54.66
2019-05-13T15:29:17.229Z,54.64
2019-05-13T15:31:48.470Z,54.33
2019-05-13T15:34:19.695Z,55.21
2019-05-13T15:36:51.788Z,57.19
2019-05-13T15:39:23.171Z,57.00
2019-05-13T15:41:54.375Z,56.63
2019-05-13T15:44:25.783Z,56.10
2019-05-13T15:46:59.416Z,56.44
2019-05-13T15:49:32.361Z,56.26
2019-05-13T15:52:03.832Z,56.02
2019-05-13T15:54:35.120Z,55.50
2019-05-13T15:57:06.344Z,56.15
2019-05-13T15:59:37.642Z,56.74
2019-05-13T16:02:11.731Z,57.01
2019-05-13T16:04:52.616Z,56.63
2019-05-13T16:07:19.160Z,56.53
2019-05-13T16:09:52.678Z,56.58
2019-05-13T16:12:23.845Z,55.10
2019-05-13T16:14:55.551Z,54.97
2019-05-13T16:17:40.648Z,55.86
2019-05-13T16:20:01.909Z,56.38
2019-05-13T16:22:32.652Z,56.11
2019-05-13T16:25:04.414Z,55.33
2019-05-13T16:27:35.679Z,54.45
2019-05-13T16:30:07.557Z,53.97
2019-05-13T16:32:38.753Z,54.84
2019-05-13T16:35:10.748Z,56.67
2019-05-13T16:37:45.292Z,58.36
2019-05-13T16:40:15.587Z,57.23
2019-05-13T16:42:47.002Z,58.58
2019-05-13T16:45:18.664Z,59.03
2019-05-13T16:47:59.351Z,60.14
2019-05-13T16:50:23.072Z,60.82
2019-05-13T16:52:54.732Z,61.29
2019-05-13T16:55:25.966Z,60.57
2019-05-13T16:58:33.646Z,61.17
2019-05-13T17:01:04.990Z,60.93
2019-05-13T17:03:36.350Z,58.88
2019-05-13T17:06:07.632Z,61.35
2019-05-13T17:08:38.867Z,63.33
2019-05-13T17:11:11.800Z,64.85
2019-05-13T17:13:43.219Z,65.43
2019-05-13T17:16:14.442Z,65.31
2019-05-13T17:18:46.014Z,65.29
2019-05-13T17:21:17.262Z,67.71
2019-05-13T17:23:48.508Z,68.95
2019-05-13T17:26:22.022Z,68.31
2019-05-13T17:28:52.768Z,67.54
2019-05-13T17:31:23.991Z,68.45
2019-05-13T17:33:55.196Z,68.46
2019-05-13T17:36:26.410Z,68.68
2019-05-13T17:38:57.708Z,68.89
2019-05-13T17:41:28.955Z,69.10
2019-05-13T17:44:02.214Z,68.94
2019-05-13T17:46:37.716Z,69.54
2019-05-13T17:49:27.218Z,69.82
2019-05-13T17:51:58.450Z,70.61
2019-05-13T17:54:31.843Z,70.09
2019-05-13T17:57:04.074Z,69.69
2019-05-13T17:59:35.275Z,69.70
2019-05-13T18:02:08.099Z,69.73
2019-05-13T18:04:41.430Z,68.98
2019-05-13T18:07:12.532Z,69.02
2019-05-13T18:09:43.775Z,69.28
2019-05-13T18:12:15.911Z,70.60
2019-05-13T18:14:47.205Z,71.46
2019-05-13T18:17:18.808Z,71.75
2019-05-13T18:19:51.463Z,72.69
2019-05-13T18:22:23.102Z,71.26
2019-05-13T18:24:54.913Z,70.95
2019-05-13T18:27:26.418Z,72.36
2019-05-13T18:29:58.115Z,71.73
2019-05-13T18:32:29.346Z,71.94
2019-05-13T18:35:01.835Z,72.55
2019-05-13T18:37:33.089Z,72.78
2019-05-13T18:40:05.079Z,72.19
2019-05-13T18:42:36.315Z,72.93
2019-05-13T18:45:08.293Z,73.11
2019-05-13T18:47:40.068Z,73.63
2019-05-13T18:50:11.773Z,74.27
2019-05-13T18:52:44.720Z,74.81
2019-05-13T18:55:16.351Z,75.92
2019-05-13T18:57:47.612Z,76.17
2019-05-13T19:00:21.539Z,76.32
2019-05-13T19:02:52.570Z,76.55
2019-05-13T19:05:23.867Z,76.45
2019-05-13T19:07:55.267Z,76.14
2019-05-13T19:10:26.941Z,75.43
2019-05-13T19:12:58.508Z,74.40
2019-05-13T19:15:31.572Z,74.35
2019-05-13T19:18:03.000Z,74.66
2019-05-13T19:20:34.463Z,74.80
2019-05-13T19:23:05.705Z,74.71
2019-05-13T19:25:39.843Z,73.91
2019-05-13T19:28:11.872Z,74.65
2019-05-13T19:30:43.371Z,75.13
2019-05-13T19:33:14.615Z,74.54
2019-05-13T19:35:45.908Z,76.28
2019-05-13T19:38:17.091Z,76.81
2019-05-13T19:40:48.516Z,76.86
2019-05-13T19:43:21.799Z,76.96
2019-05-13T19:46:01.595Z,76.66
2019-05-13T19:48:33.006Z,76.94
2019-05-13T19:51:04.342Z,77.04
2019-05-13T19:53:35.640Z,76.53
2019-05-13T19:56:07.160Z,76.28
2019-05-13T19:58:38.366Z,75.71
2019-05-13T20:01:11.716Z,76.71
2019-05-13T20:03:42.693Z,77.39
2019-05-13T20:06:13.899Z,77.17
2019-05-13T20:08:45.113Z,77.23
2019-05-13T20:11:16.302Z,77.58
2019-05-13T20:13:48.052Z,78.05
2019-05-13T20:16:19.418Z,76.60
2019-05-13T20:18:51.776Z,76.29
2019-05-13T20:21:23.076Z,75.73
2019-05-13T20:23:54.568Z,76.13
2019-05-13T20:26:26.075Z,76.71
2019-05-13T20:28:57.728Z,76.24
2019-05-13T20:31:28.944Z,76.11
2019-05-13T20:34:01.729Z,75.63
2019-05-13T20:36:33.514Z,75.95
2019-05-13T20:39:06.315Z,76.02
2019-05-13T20:41:41.261Z,75.95
2019-05-13T20:44:12.203Z,76.31
2019-05-13T20:46:43.519Z,76.14
2019-05-13T20:49:15.042Z,76.01
2019-05-13T20:51:46.768Z,76.23
2019-05-13T20:54:18.081Z,76.30
2019-05-13T20:56:51.642Z,76.14
2019-05-13T20:59:22.270Z,75.92
2019-05-13T21:01:53.651Z,75.98
2019-05-13T21:04:24.858Z,76.35
2019-05-13T21:06:56.327Z,76.30
2019-05-13T21:09:27.605Z,75.89
2019-05-13T21:12:01.492Z,74.96
2019-05-13T21:14:32.660Z,75.43
2019-05-13T21:17:03.962Z,75.12
2019-05-13T21:19:39.743Z,74.88
2019-05-13T21:22:08.191Z,75.43
2019-05-13T21:24:41.239Z,76.08
2019-05-13T21:27:12.566Z,75.96
2019-05-13T21:29:43.777Z,75.95
2019-05-13T21:32:17.623Z,75.59
2019-05-13T21:34:48.340Z,75.46
2019-05-13T21:37:21.926Z,75.23
2019-05-13T21:39:52.531Z,75.43
2019-05-13T21:42:23.849Z,75.22
2019-05-13T21:44:55.342Z,74.86
2019-05-13T21:47:26.700Z,75.26
2019-05-13T21:49:57.932Z,74.99
2019-05-13T21:52:29.358Z,75.37
2019-05-13T21:55:01.899Z,75.35
2019-05-13T21:57:33.362Z,75.51
2019-05-13T22:00:08.375Z,75.53
2019-05-13T22:02:41.117Z,75.55
2019-05-13T22:05:13.802Z,75.35
2019-05-13T22:07:45.099Z,75.55
2019-05-13T22:10:16.725Z,75.42
2019-05-13T22:12:47.962Z,74.96
2019-05-13T22:15:21.710Z,74.93
2019-05-13T22:17:52.607Z,75.11
2019-05-13T22:20:23.864Z,74.96
2019-05-13T22:22:55.308Z,74.02
2019-05-13T22:25:26.656Z,74.47
2019-05-13T22:27:58.050Z,74.68
2019-05-13T22:30:33.377Z,73.77
2019-05-13T22:33:02.287Z,73.84
2019-05-13T22:35:33.492Z,74.30
2019-05-13T22:38:04.878Z,74.19
2019-05-13T22:40:36.313Z,74.16
2019-05-13T22:43:07.665Z,74.00
2019-05-13T22:45:39.029Z,73.52
2019-05-13T22:48:12.047Z,73.40
2019-05-13T22:50:43.598Z,73.94
2019-05-13T22:53:14.762Z,74.02
2019-05-13T22:55:45.988Z,73.88
2019-05-13T22:58:17.188Z,73.43
2019-05-13T23:00:48.599Z,73.90
2019-05-13T23:03:20.095Z,73.89
2019-05-13T23:05:52.233Z,73.95
2019-05-13T23:08:23.669Z,74.19
2019-05-13T23:10:54.878Z,74.06
2019-05-13T23:13:26.418Z,74.25
2019-05-13T23:15:57.710Z,75.40
2019-05-13T23:18:31.453Z,75.03
2019-05-13T23:21:02.573Z,74.75
2019-05-13T23:23:37.460Z,74.95
2019-05-13T23:26:08.972Z,75.14
2019-05-13T23:28:41.609Z,75.20
2019-05-13T23:31:13.072Z,74.88
2019-05-13T23:33:44.346Z,74.16
2019-05-13T23:36:15.569Z,73.68
2019-05-13T23:38:47.569Z,72.79
2019-05-13T23:41:18.774Z,72.48
2019-05-13T23:43:50.376Z,73.41
2019-05-13T23:46:22.385Z,74.10
2019-05-13T23:48:53.765Z,73.81
2019-05-13T23:51:24.998Z,73.62
2019-05-13T23:53:56.379Z,74.23
2019-05-13T23:56:27.618Z,74.72
2019-05-13T23:58:58.955Z,74.80
